Time,TemperatureF,DewpointF,PressureIn,WindDirection,WindDirectionDegrees,WindSpeedMPH,WindSpeedGustMPH,Humidity,HourlyPrecipIn,Conditions,Clouds,dailyrainin,SoftwareType,DateUTC
2013-09-16 00:01:00,71.0,50.3,30.13,SW,225,0.0,0.0,48,0.00,,---,0.00,VWS V14.01,2013-09-16 04:01:00,
2013-09-16 00:02:00,71.0,50.3,30.14,SW,225,0.0,0.0,48,0.00,,---,0.00,VWS V14.01,2013-09-16 04:02:00,
2013-09-16 00:04:00,71.0,50.3,30.14,SW,225,0.0,0.0,48,0.00,,---,0.00,VWS V14.01,2013-09-16 04:04:00,
2013-09-16 00:09:00,71.0,50.3,30.14,SW,225,0.0,0.0,48,0.00,,---,0.00,VWS V14.01,2013-09-16 04:09:00,
2013-09-16 00:11:00,71.0,50.3,30.14,SW,225,0.0,0.0,48,0.00,,---,0.00,VWS V14.01,2013-09-16 04:11:00,
2013-09-16 00:13:00,71.0,51.5,30.14,SW,225,0.0,0.0,50,0.00,,---,0.00,VWS V14.01,2013-09-16 04:13:00,
2013-09-16 00:18:00,71.0,51.5,30.14,SW,225,0.0,0.0,50,0.00,,---,0.00,VWS V14.01,2013-09-16 04:18:00,
2013-09-16 00:23:00,71.0,52.0,30.14,SW,225,0.0,0.0,51,0.00,,---,0.00,VWS V14.01,2013-09-16 04:23:00,
2013-09-16 00:24:00,71.0,52.0,30.14,SW,225,0.0,0.0,51,0.00,,---,0.00,VWS V14.01,2013-09-16 04:24:00,
2013-09-16 00:29:00,71.0,51.5,30.14,SW,225,0.0,0.0,50,0.00,,---,0.00,VWS V14.01,2013-09-16 04:29:00,
2013-09-16 00:34:00,71.0,51.5,30.14,SW,225,0.0,0.0,50,0.00,,---,0.00,VWS V14.01,2013-09-16 04:34:00,
2013-09-16 00:39:00,70.0,50.5,30.14,SW,225,0.0,0.0,50,0.00,,---,0.00,VWS V14.01,2013-09-16 04:39:00,
2013-09-16 00:44:00,70.0,51.1,30.14,SW,225,0.0,0.0,51,0.00,,---,0.00,VWS V14.01,2013-09-16 04:44:00,
2013-09-16 00:49:00,70.0,50.5,30.14,SW,225,0.0,0.0,50,0.00,,---,0.00,VWS V14.01,2013-09-16 04:49:00,
2013-09-16 00:54:00,70.0,50.5,30.15,SW,225,0.0,0.0,50,0.00,,---,0.00,VWS V14.01,2013-09-16 04:54:00,
2013-09-16 00:59:00,70.0,50.0,30.15,SW,225,0.0,0.0,49,0.00,,---,0.00,VWS V14.01,2013-09-16 04:59:00,
2013-09-16 01:04:00,70.0,50.5,30.16,SW,225,0.0,0.0,50,0.00,,---,0.00,VWS V14.01,2013-09-16 05:04:00,
2013-09-16 01:09:00,70.0,49.4,30.16,SW,225,0.0,0.0,48,0.00,,---,0.00,VWS V14.01,2013-09-16 05:09:00,
2013-09-16 01:14:00,70.0,50.5,30.16,SW,225,0.0,0.0,50,0.00,,---,0.00,VWS V14.01,2013-09-16 05:14:00,
2013-09-16 01:19:00,71.0,51.5,30.16,SW,225,0.0,0.0,50,0.00,,---,0.00,VWS V14.01,2013-09-16 05:19:00,
2013-09-16 01:24:00,71.0,52.0,30.15,SW,225,0.0,0.0,51,0.00,,---,0.00,VWS V14.01,2013-09-16 05:24:00,
2013-09-16 01:29:00,71.0,52.0,30.15,SW,225,0.0,0.0,51,0.00,,---,0.00,VWS V14.01,2013-09-16 05:29:00,
2013-09-16 01:34:00,71.0,54.0,30.15,SW,225,0.0,0.0,55,0.00,,---,0.00,VWS V14.01,2013-09-16 05:34:00,
2013-09-16 01:39:00,71.0,54.5,30.15,SW,225,0.0,0.0,56,0.00,,---,0.00,VWS V14.01,2013-09-16 05:39:00,
2013-09-16 01:44:00,71.0,55.5,30.15,SW,225,0.0,0.0,58,0.00,,---,0.00,VWS V14.01,2013-09-16 05:44:00,
2013-09-16 01:49:00,71.0,55.0,30.15,SW,225,0.0,0.0,57,0.00,,---,0.00,VWS V14.01,2013-09-16 05:49:00,
2013-09-16 01:54:00,71.0,55.0,30.15,SW,225,0.0,0.0,57,0.00,,---,0.00,VWS V14.01,2013-09-16 05:54:00,
2013-09-16 01:59:00,71.0,54.5,30.15,SW,225,0.0,0.0,56,0.00,,---,0.00,VWS V14.01,2013-09-16 05:59:00,
2013-09-16 02:04:00,71.0,54.0,30.14,SW,225,0.0,0.0,55,0.00,,---,0.00,VWS V14.01,2013-09-16 06:04:00,
2013-09-16 02:09:00,71.0,53.5,30.14,SW,225,0.0,0.0,54,0.00,,---,0.00,VWS V14.01,2013-09-16 06:09:00,
2013-09-16 02:14:00,71.0,54.0,30.14,SW,225,0.0,0.0,55,0.00,,---,0.00,VWS V14.01,2013-09-16 06:14:00,
2013-09-16 02:19:00,71.0,53.0,30.14,SW,225,0.0,0.0,53,0.00,,---,0.00,VWS V14.01,2013-09-16 06:19:00,
2013-09-16 02:24:00,71.0,53.5,30.14,SW,225,0.0,0.0,54,0.00,,---,0.00,VWS V14.01,2013-09-16 06:24:00,
2013-09-16 02:29:00,71.0,53.0,30.14,SW,225,0.0,0.0,53,0.00,,---,0.00,VWS V14.01,2013-09-16 06:29:00,
2013-09-16 02:34:00,71.0,53.5,30.13,SW,225,0.0,0.0,54,0.00,,---,0.00,VWS V14.01,2013-09-16 06:34:00,
2013-09-16 02:39:00,71.0,53.0,30.13,SW,225,0.0,0.0,53,0.00,,---,0.00,VWS V14.01,2013-09-16 06:39:00,
2013-09-16 02:44:00,70.0,52.1,30.12,SW,225,0.0,0.0,53,0.00,,---,0.00,VWS V14.01,2013-09-16 06:44:00,
2013-09-16 02:49:00,70.0,52.1,30.12,SW,225,0.0,0.0,53,0.00,,---,0.00,VWS V14.01,2013-09-16 06:49:00,
2013-09-16 02:54:00,70.0,51.6,30.12,SW,225,0.0,0.0,52,0.00,,---,0.00,VWS V14.01,2013-09-16 06:54:00,
2013-09-16 02:59:00,70.0,51.1,30.12,SW,225,0.0,0.0,51,0.00,,---,0.00,VWS V14.01,2013-09-16 06:59:00,
2013-09-16 03:04:00,70.0,53.1,30.12,SW,225,0.0,0.0,55,0.00,,---,0.00,VWS V14.01,2013-09-16 07:04:00,
2013-09-16 03:09:00,70.0,52.1,30.12,SW,225,0.0,0.0,53,0.00,,---,0.00,VWS V14.01,2013-09-16 07:09:00,
2013-09-16 03:14:00,70.0,52.1,30.12,SW,225,0.0,0.0,53,0.00,,---,0.00,VWS V14.01,2013-09-16 07:14:00,
2013-09-16 03:19:00,70.0,51.1,30.12,SW,225,0.0,0.0,51,0.00,,---,0.00,VWS V14.01,2013-09-16 07:19:00,
2013-09-16 03:24:00,70.0,52.6,30.11,SW,225,0.0,0.0,54,0.00,,---,0.00,VWS V14.01,2013-09-16 07:24:00,
2013-09-16 03:29:00,70.0,52.1,30.11,SW,225,0.0,0.0,53,0.00,,---,0.00,VWS V14.01,2013-09-16 07:29:00,
2013-09-16 03:34:00,70.0,52.1,30.11,SW,225,0.0,0.0,53,0.00,,---,0.00,VWS V14.01,2013-09-16 07:34:00,
2013-09-16 03:39:00,70.0,52.1,30.11,SW,225,0.0,0.0,53,0.00,,---,0.00,VWS V14.01,2013-09-16 07:39:00,
2013-09-16 03:44:00,70.0,52.1,30.11,SW,225,0.0,0.0,53,0.00,,---,0.00,VWS V14.01,2013-09-16 07:44:00,
2013-09-16 03:49:00,70.0,51.6,30.11,SW,225,0.0,0.0,52,0.00,,---,0.00,VWS V14.01,2013-09-16 07:49:00,
2013-09-16 03:54:00,70.0,52.1,30.10,SW,225,0.0,0.0,53,0.00,,---,0.00,VWS V14.01,2013-09-16 07:54:00,
2013-09-16 03:59:00,70.0,51.6,30.10,SW,225,0.0,0.0,52,0.00,,---,0.00,VWS V14.01,2013-09-16 07:59:00,
2013-09-16 04:04:00,70.0,51.6,30.10,SW,225,0.0,0.0,52,0.00,,---,0.00,VWS V14.01,2013-09-16 08:04:00,
2013-09-16 04:09:00,70.0,50.5,30.10,SW,225,0.0,0.0,50,0.00,,---,0.00,VWS V14.01,2013-09-16 08:09:00,
2013-09-16 04:14:00,70.0,51.1,30.10,SW,225,0.0,0.0,51,0.00,,---,0.00,VWS V14.01,2013-09-16 08:14:00,
2013-09-16 04:19:00,70.0,51.1,30.10,SW,225,0.0,0.0,51,0.00,,---,0.00,VWS V14.01,2013-09-16 08:19:00,
2013-09-16 04:24:00,70.0,52.1,30.10,SW,225,0.0,0.0,53,0.00,,---,0.00,VWS V14.01,2013-09-16 08:24:00,
2013-09-16 04:29:00,70.0,51.6,30.10,SW,225,0.0,0.0,52,0.00,,---,0.00,VWS V14.01,2013-09-16 08:29:00,
2013-09-16 04:34:00,70.0,53.1,30.10,SW,225,0.0,0.0,55,0.00,,---,0.00,VWS V14.01,2013-09-16 08:34:00,
2013-09-16 04:39:00,70.0,52.1,30.10,SW,225,0.0,0.0,53,0.00,,---,0.00,VWS V14.01,2013-09-16 08:39:00,
2013-09-16 04:44:00,70.0,53.1,30.10,SW,225,0.0,0.0,55,0.00,,---,0.00,VWS V14.01,2013-09-16 08:44:00,
2013-09-16 04:49:00,70.0,53.1,30.10,SW,225,0.0,0.0,55,0.00,,---,0.00,VWS V14.01,2013-09-16 08:49:00,
2013-09-16 04:54:00,70.0,53.6,30.11,SW,225,0.0,0.0,56,0.00,,---,0.00,VWS V14.01,2013-09-16 08:54:00,
2013-09-16 04:59:00,70.0,53.1,30.11,SW,225,0.0,0.0,55,0.00,,---,0.00,VWS V14.01,2013-09-16 08:59:00,
2013-09-16 05:04:00,70.0,53.1,30.11,SW,225,0.0,0.0,55,0.00,,---,0.00,VWS V14.01,2013-09-16 09:04:00,
2013-09-16 05:09:00,70.0,52.1,30.11,SW,225,0.0,0.0,53,0.00,,---,0.00,VWS V14.01,2013-09-16 09:09:00,
2013-09-16 05:14:00,70.0,53.1,30.11,SW,225,0.0,0.0,55,0.00,,---,0.00,VWS V14.01,2013-09-16 09:14:00,
2013-09-16 05:19:00,70.0,52.1,30.11,SW,225,0.0,0.0,53,0.00,,---,0.00,VWS V14.01,2013-09-16 09:19:00,
2013-09-16 05:24:00,70.0,53.6,30.11,SW,225,0.0,0.0,56,0.00,,---,0.00,VWS V14.01,2013-09-16 09:24:00,
2013-09-16 05:29:00,70.0,53.6,30.11,SW,225,0.0,0.0,56,0.00,,---,0.00,VWS V14.01,2013-09-16 09:29:00,
2013-09-16 05:34:00,70.0,53.6,30.12,SW,225,0.0,0.0,56,0.00,,---,0.00,VWS V14.01,2013-09-16 09:34:00,
2013-09-16 05:39:00,70.0,53.1,30.12,SW,225,0.0,0.0,55,0.00,,---,0.00,VWS V14.01,2013-09-16 09:39:00,
2013-09-16 05:44:00,70.0,53.1,30.12,SW,225,0.0,0.0,55,0.00,,---,0.00,VWS V14.01,2013-09-16 09:44:00,
2013-09-16 05:49:00,70.0,52.6,30.12,SW,225,0.0,0.0,54,0.00,,---,0.00,VWS V14.01,2013-09-16 09:49:00,
2013-09-16 05:54:00,70.0,52.6,30.12,SW,225,0.0,0.0,54,0.00,,---,0.00,VWS V14.01,2013-09-16 09:54:00,
2013-09-16 05:59:00,70.0,52.1,30.12,SW,225,0.0,0.0,53,0.00,,---,0.00,VWS V14.01,2013-09-16 09:59:00,
2013-09-16 06:04:00,70.0,53.1,30.12,SW,225,0.0,0.0,55,0.00,,---,0.00,VWS V14.01,2013-09-16 10:04:00,
2013-09-16 06:09:00,70.0,52.6,30.12,SW,225,0.0,0.0,54,0.00,,---,0.00,VWS V14.01,2013-09-16 10:09:00,
2013-09-16 06:14:00,70.0,52.1,30.12,SW,225,0.0,0.0,53,0.00,,---,0.00,VWS V14.01,2013-09-16 10:14:00,
2013-09-16 06:19:00,70.0,52.1,30.12,SW,225,0.0,0.0,53,0.00,,---,0.00,VWS V14.01,2013-09-16 10:19:00,
2013-09-16 06:24:00,70.0,54.1,30.12,SW,225,0.0,0.0,57,0.00,,---,0.00,VWS V14.01,2013-09-16 10:24:00,
2013-09-16 06:29:00,71.0,55.0,30.12,SW,225,0.0,0.0,57,0.00,,---,0.00,VWS V14.01,2013-09-16 10:29:00,
2013-09-16 06:34:00,71.0,55.5,30.12,SW,225,0.0,0.0,58,0.00,,---,0.00,VWS V14.01,2013-09-16 10:34:00,
2013-09-16 06:42:00,71.0,55.0,30.12,SW,225,0.0,0.0,57,0.00,,---,0.00,VWS V14.01,2013-09-16 10:42:00,
2013-09-16 06:47:00,71.0,56.4,30.12,SW,225,0.0,0.0,60,0.00,,---,0.00,VWS V14.01,2013-09-16 10:47:00,
2013-09-16 06:53:00,71.0,55.5,30.12,SW,225,0.0,0.0,58,0.00,,---,0.00,VWS V14.01,2013-09-16 10:53:00,
2013-09-16 06:58:00,71.0,55.0,30.12,SW,225,0.0,0.0,57,0.00,,---,0.00,VWS V14.01,2013-09-16 10:58:00,
2013-09-16 07:03:00,71.0,56.9,30.13,SW,225,0.0,0.0,61,0.00,,---,0.00,VWS V14.01,2013-09-16 11:03:00,
2013-09-16 07:08:00,72.0,57.4,30.13,SW,225,0.0,0.0,60,0.00,,---,0.00,VWS V14.01,2013-09-16 11:08:00,
2013-09-16 07:13:00,72.0,57.8,30.13,SW,225,0.0,0.0,61,0.00,,---,0.00,VWS V14.01,2013-09-16 11:13:00,
2013-09-16 07:18:00,72.0,57.4,30.13,SW,225,0.0,0.0,60,0.00,,---,0.00,VWS V14.01,2013-09-16 11:18:00,
2013-09-16 07:23:00,72.0,57.8,30.13,SW,225,0.0,0.0,61,0.00,,---,0.00,VWS V14.01,2013-09-16 11:23:00,
2013-09-16 07:28:00,72.0,56.9,30.13,SW,225,0.0,0.0,59,0.00,,---,0.00,VWS V14.01,2013-09-16 11:28:00,
2013-09-16 07:33:00,72.0,57.4,30.13,SW,225,0.0,0.0,60,0.00,,---,0.00,VWS V14.01,2013-09-16 11:33:00,
2013-09-16 07:38:00,72.0,57.4,30.13,SW,225,0.0,0.0,60,0.00,,---,0.00,VWS V14.01,2013-09-16 11:38:00,
2013-09-16 07:43:00,73.0,58.3,30.14,SW,225,0.0,0.0,60,0.00,,---,0.00,VWS V14.01,2013-09-16 11:43:00,
2013-09-16 07:48:00,73.0,57.4,30.14,SW,225,0.0,0.0,58,0.00,,---,0.00,VWS V14.01,2013-09-16 11:48:00,
2013-09-16 07:53:00,73.0,57.4,30.14,SW,225,0.0,0.0,58,0.00,,---,0.00,VWS V14.01,2013-09-16 11:53:00,
2013-09-16 07:58:00,73.0,56.9,30.14,SW,225,0.0,0.0,57,0.00,,---,0.00,VWS V14.01,2013-09-16 11:58:00,
2013-09-16 08:03:00,73.0,57.8,30.14,SW,225,0.0,0.0,59,0.00,,---,0.00,VWS V14.01,2013-09-16 12:03:00,
2013-09-16 08:08:00,74.0,58.3,30.14,SW,225,0.0,0.0,58,0.00,,---,0.00,VWS V14.01,2013-09-16 12:08:00,
2013-09-16 08:13:00,74.0,59.7,30.13,SW,225,0.0,0.0,61,0.00,,---,0.00,VWS V14.01,2013-09-16 12:13:00,
2013-09-16 08:18:00,75.0,60.2,30.13,SW,225,0.0,0.0,60,0.00,,---,0.00,VWS V14.01,2013-09-16 12:18:00,
2013-09-16 08:23:00,75.0,63.7,30.13,SE,135,0.0,0.0,68,0.00,,---,0.00,VWS V14.01,2013-09-16 12:23:00,
2013-09-16 08:28:00,75.0,64.6,30.13,SE,135,2.0,3.0,70,0.00,,---,0.00,VWS V14.01,2013-09-16 12:28:00,
2013-09-16 08:33:00,75.0,65.8,30.13,SE,135,0.0,0.0,73,0.00,,---,0.00,VWS V14.01,2013-09-16 12:33:00,
2013-09-16 08:38:00,76.0,67.1,30.13,SE,135,0.0,4.0,74,0.00,,---,0.00,VWS V14.01,2013-09-16 12:38:00,
2013-09-16 08:43:00,76.0,67.5,30.13,ESE,112,0.0,3.0,75,0.00,,---,0.00,VWS V14.01,2013-09-16 12:43:00,
2013-09-16 08:48:00,76.0,67.9,30.13,ESE,112,3.0,6.0,76,0.00,,---,0.00,VWS V14.01,2013-09-16 12:48:00,
2013-09-16 08:53:00,76.0,69.4,30.13,ESE,112,0.0,0.0,80,0.00,,---,0.00,VWS V14.01,2013-09-16 12:53:00,
2013-09-16 08:58:00,76.0,69.0,30.13,ESE,112,2.0,3.0,79,0.00,,---,0.00,VWS V14.01,2013-09-16 12:58:00,
2013-09-16 09:03:00,76.0,73.2,30.13,ESE,112,3.0,3.0,91,0.00,,---,0.00,VWS V14.01,2013-09-16 13:03:00,
2013-09-16 09:08:00,77.0,73.8,30.13,ESE,112,0.0,0.0,90,0.00,,---,0.00,VWS V14.01,2013-09-16 13:08:00,
2013-09-16 09:13:00,77.0,73.2,30.12,North,360,0.0,1.0,88,0.00,,---,0.00,VWS V14.01,2013-09-16 13:13:00,
2013-09-16 09:18:00,77.0,73.5,30.12,East,90,0.0,1.0,89,0.00,,---,0.00,VWS V14.01,2013-09-16 13:18:00,
2013-09-16 09:23:00,78.0,74.8,30.12,East,90,0.0,1.0,90,0.00,,---,0.00,VWS V14.01,2013-09-16 13:23:00,
2013-09-16 09:28:00,78.0,75.8,30.12,East,90,2.0,5.0,93,0.00,,---,0.00,VWS V14.01,2013-09-16 13:28:00,
2013-09-16 09:33:00,78.0,75.8,30.12,East,90,1.0,3.0,93,0.00,,---,0.00,VWS V14.01,2013-09-16 13:33:00,
2013-09-16 09:38:00,78.0,75.8,30.12,East,90,0.0,0.0,93,0.00,,---,0.00,VWS V14.01,2013-09-16 13:38:00,
2013-09-16 09:43:00,79.0,77.4,30.12,NE,45,0.0,0.0,95,0.00,,---,0.00,VWS V14.01,2013-09-16 13:43:00,
2013-09-16 09:48:00,79.0,78.7,30.12,NNE,22,0.0,0.0,99,0.00,,---,0.00,VWS V14.01,2013-09-16 13:48:00,
2013-09-16 09:53:00,79.0,79.0,30.12,North,360,0.0,0.0,100,0.00,,---,0.00,VWS V14.01,2013-09-16 13:53:00,
2013-09-16 09:58:00,80.0,80.0,30.12,East,90,0.0,2.0,100,0.00,,---,0.00,VWS V14.01,2013-09-16 13:58:00,
2013-09-16 10:03:00,80.0,80.0,30.12,East,90,1.0,3.0,100,0.00,,---,0.00,VWS V14.01,2013-09-16 14:03:00,
2013-09-16 10:08:00,81.0,81.0,30.12,ESE,112,3.0,7.0,100,0.00,,---,0.00,VWS V14.01,2013-09-16 14:08:00,
2013-09-16 10:13:00,81.0,81.0,30.11,North,360,0.0,0.0,100,0.00,,---,0.00,VWS V14.01,2013-09-16 14:13:00,
2013-09-16 10:18:00,81.0,81.0,30.11,North,360,0.0,4.0,100,0.00,,---,0.00,VWS V14.01,2013-09-16 14:18:00,
2013-09-16 10:23:00,82.0,82.0,30.11,East,90,0.0,4.0,100,0.00,,---,0.00,VWS V14.01,2013-09-16 14:23:00,
2013-09-16 10:28:00,82.0,82.0,30.11,ESE,112,1.0,9.0,100,0.00,,---,0.00,VWS V14.01,2013-09-16 14:28:00,
2013-09-16 10:33:00,82.0,82.0,30.11,East,90,1.0,1.0,100,0.00,,---,0.00,VWS V14.01,2013-09-16 14:33:00,
2013-09-16 10:38:00,83.0,83.0,30.11,East,90,0.0,6.0,100,0.00,,---,0.00,VWS V14.01,2013-09-16 14:38:00,
2013-09-16 10:43:00,83.0,83.0,30.12,NNE,22,0.0,1.0,100,0.00,,---,0.00,VWS V14.01,2013-09-16 14:43:00,
2013-09-16 10:48:00,84.0,83.7,30.12,ESE,112,5.0,5.0,99,0.00,,---,0.00,VWS V14.01,2013-09-16 14:48:00,
2013-09-16 10:53:00,85.0,84.4,30.11,ESE,112,2.0,8.0,98,0.00,,---,0.00,VWS V14.01,2013-09-16 14:53:00,
2013-09-16 10:58:00,86.0,85.1,30.11,ESE,112,2.0,9.0,97,0.00,,---,0.00,VWS V14.01,2013-09-16 14:58:00,
2013-09-16 11:03:00,86.0,85.4,30.11,ESE,112,1.0,7.0,98,0.00,,---,0.00,VWS V14.01,2013-09-16 15:03:00,
2013-09-16 11:08:00,86.0,84.1,30.11,East,90,3.0,7.0,94,0.00,,---,0.00,VWS V14.01,2013-09-16 15:08:00,
2013-09-16 11:13:00,87.0,87.0,30.11,North,360,4.0,4.0,100,0.00,,---,0.00,VWS V14.01,2013-09-16 15:13:00,
2013-09-16 11:18:00,87.0,86.7,30.11,NE,45,1.0,2.0,99,0.00,,---,0.00,VWS V14.01,2013-09-16 15:18:00,
2013-09-16 11:23:00,88.0,87.7,30.11,East,90,1.0,3.0,99,0.00,,---,0.00,VWS V14.01,2013-09-16 15:23:00,
2013-09-16 11:28:00,88.0,87.1,30.11,NW,315,3.0,4.0,97,0.00,,---,0.00,VWS V14.01,2013-09-16 15:28:00,
2013-09-16 11:33:00,89.0,85.0,30.10,ESE,112,3.0,6.0,88,0.00,,---,0.00,VWS V14.01,2013-09-16 15:33:00,
2013-09-16 11:38:00,89.0,88.0,30.10,ESE,112,0.0,2.0,97,0.00,,---,0.00,VWS V14.01,2013-09-16 15:38:00,
2013-09-16 11:43:00,90.0,85.2,30.09,ESE,112,4.0,5.0,86,0.00,,---,0.00,VWS V14.01,2013-09-16 15:43:00,
2013-09-16 11:48:00,89.0,83.9,30.09,ESE,112,4.0,6.0,85,0.00,,---,0.00,VWS V14.01,2013-09-16 15:48:00,
2013-09-16 11:53:00,89.0,86.0,30.09,ESE,112,1.0,2.0,91,0.00,,---,0.00,VWS V14.01,2013-09-16 15:53:00,
2013-09-16 11:58:00,89.0,84.3,30.09,ESE,112,6.0,9.0,86,0.00,,---,0.00,VWS V14.01,2013-09-16 15:58:00,
2013-09-16 12:03:00,89.0,83.9,30.09,East,90,3.0,4.0,85,0.00,,---,0.00,VWS V14.01,2013-09-16 16:03:00,
2013-09-16 12:08:00,89.0,84.3,30.09,East,90,2.0,3.0,86,0.00,,---,0.00,VWS V14.01,2013-09-16 16:08:00,
2013-09-16 12:13:00,90.0,84.5,30.08,ESE,112,1.0,5.0,84,0.00,,---,0.00,VWS V14.01,2013-09-16 16:13:00,
2013-09-16 12:18:00,90.0,83.8,30.08,ESE,112,3.0,4.0,82,0.00,,---,0.00,VWS V14.01,2013-09-16 16:18:00,
2013-09-16 12:23:00,90.0,86.0,30.08,ESE,112,0.0,2.0,88,0.00,,---,0.00,VWS V14.01,2013-09-16 16:23:00,
2013-09-16 12:28:00,90.0,89.4,30.08,NW,315,0.0,2.0,98,0.00,,---,0.00,VWS V14.01,2013-09-16 16:28:00,
2013-09-16 12:33:00,90.0,86.0,30.08,ESE,112,2.0,6.0,88,0.00,,---,0.00,VWS V14.01,2013-09-16 16:33:00,
2013-09-16 12:38:00,90.0,88.7,30.08,ESE,112,0.0,5.0,96,0.00,,---,0.00,VWS V14.01,2013-09-16 16:38:00,
2013-09-16 12:43:00,90.0,89.4,30.07,East,90,1.0,3.0,98,0.00,,---,0.00,VWS V14.01,2013-09-16 16:43:00,
2013-09-16 12:48:00,90.0,84.1,30.07,NE,45,2.0,4.0,83,0.00,,---,0.00,VWS V14.01,2013-09-16 16:48:00,
2013-09-16 12:53:00,90.0,84.1,30.06,ESE,112,4.0,7.0,83,0.00,,---,0.00,VWS V14.01,2013-09-16 16:53:00,
2013-09-16 12:58:00,90.0,83.8,30.06,East,90,0.0,2.0,82,0.00,,---,0.00,VWS V14.01,2013-09-16 16:58:00,
2013-09-16 13:03:00,90.0,83.8,30.06,ESE,112,1.0,9.0,82,0.00,,---,0.00,VWS V14.01,2013-09-16 17:03:00,
2013-09-16 13:08:00,90.0,83.0,30.06,East,90,0.0,4.0,80,0.00,,---,0.00,VWS V14.01,2013-09-16 17:08:00,
2013-09-16 13:13:00,91.0,83.6,30.05,East,90,2.0,3.0,79,0.00,,---,0.00,VWS V14.01,2013-09-16 17:13:00,
2013-09-16 13:18:00,91.0,82.4,30.05,ESE,112,3.0,4.0,76,0.00,,---,0.00,VWS V14.01,2013-09-16 17:18:00,
2013-09-16 13:23:00,91.0,84.0,30.05,ESE,112,0.0,1.0,80,0.00,,---,0.00,VWS V14.01,2013-09-16 17:23:00,
2013-09-16 13:28:00,90.0,83.0,30.05,ESE,112,0.0,6.0,80,0.00,,---,0.00,VWS V14.01,2013-09-16 17:28:00,
2013-09-16 13:33:00,90.0,81.8,30.06,East,90,4.0,5.0,77,0.00,,---,0.00,VWS V14.01,2013-09-16 17:33:00,
2013-09-16 13:38:00,90.0,81.0,30.06,ESE,112,1.0,5.0,75,0.00,,---,0.00,VWS V14.01,2013-09-16 17:38:00,
2013-09-16 13:43:00,88.0,79.1,30.07,East,90,3.0,6.0,75,0.00,,---,0.00,VWS V14.01,2013-09-16 17:43:00,
2013-09-16 13:48:00,88.0,81.4,30.07,ESE,112,4.0,6.0,81,0.00,,---,0.00,VWS V14.01,2013-09-16 17:48:00,
2013-09-16 13:53:00,88.0,81.8,30.06,ESE,112,2.0,4.0,82,0.00,,---,0.00,VWS V14.01,2013-09-16 17:53:00,
2013-09-16 13:58:00,87.0,81.6,30.06,ESE,112,1.0,5.0,84,0.00,,---,0.00,VWS V14.01,2013-09-16 17:58:00,
2013-09-16 14:03:00,87.0,81.9,30.06,ESE,112,1.0,3.0,85,0.00,,---,0.00,VWS V14.01,2013-09-16 18:03:00,
2013-09-16 14:08:00,87.0,81.6,30.06,SE,135,0.0,4.0,84,0.00,,---,0.00,VWS V14.01,2013-09-16 18:08:00,
2013-09-16 14:13:00,87.0,82.7,30.06,SE,135,0.0,2.0,87,0.00,,---,0.00,VWS V14.01,2013-09-16 18:13:00,
2013-09-16 14:18:00,87.0,82.7,30.06,NNE,22,1.0,2.0,87,0.00,,---,0.00,VWS V14.01,2013-09-16 18:18:00,
2013-09-16 14:23:00,87.0,81.9,30.06,ESE,112,2.0,9.0,85,0.00,,---,0.00,VWS V14.01,2013-09-16 18:23:00,
2013-09-16 14:28:00,87.0,81.2,30.06,NE,45,1.0,5.0,83,0.00,,---,0.00,VWS V14.01,2013-09-16 18:28:00,
2013-09-16 14:33:00,86.0,80.6,30.06,ESE,112,6.0,6.0,84,0.00,,---,0.00,VWS V14.01,2013-09-16 18:33:00,
2013-09-16 14:38:00,86.0,81.3,30.06,ESE,112,3.0,7.0,86,0.00,,---,0.00,VWS V14.01,2013-09-16 18:38:00,
2013-09-16 14:43:00,85.0,81.1,30.06,ESE,112,1.0,7.0,88,0.00,,---,0.00,VWS V14.01,2013-09-16 18:43:00,
2013-09-16 14:48:00,85.0,81.4,30.06,ESE,112,4.0,8.0,89,0.00,,---,0.00,VWS V14.01,2013-09-16 18:48:00,
2013-09-16 14:53:00,84.0,81.1,30.08,East,90,2.0,6.0,91,0.00,,---,0.00,VWS V14.01,2013-09-16 18:53:00,
2013-09-16 14:58:00,83.0,79.1,30.08,ESE,112,4.0,9.0,88,0.00,,---,0.00,VWS V14.01,2013-09-16 18:58:00,
2013-09-16 15:03:00,83.0,79.8,30.09,ESE,112,7.0,8.0,90,0.00,,---,0.00,VWS V14.01,2013-09-16 19:03:00,
2013-09-16 15:08:00,83.0,80.8,30.09,South,180,0.0,6.0,93,0.00,,---,0.00,VWS V14.01,2013-09-16 19:08:00,
2013-09-16 15:13:00,82.0,79.4,30.09,ESE,112,2.0,5.0,92,0.00,,---,0.00,VWS V14.01,2013-09-16 19:13:00,
2013-09-16 15:18:00,82.0,79.4,30.09,SE,135,2.0,9.0,92,0.00,,---,0.00,VWS V14.01,2013-09-16 19:18:00,
2013-09-16 15:23:00,81.0,79.1,30.08,North,360,1.0,4.0,94,0.00,,---,0.00,VWS V14.01,2013-09-16 19:23:00,
2013-09-16 15:28:00,81.0,78.8,30.08,SSE,157,1.0,3.0,93,0.00,,---,0.00,VWS V14.01,2013-09-16 19:28:00,
2013-09-16 15:33:00,81.0,78.8,30.08,South,180,0.0,4.0,93,0.00,,---,0.00,VWS V14.01,2013-09-16 19:33:00,
2013-09-16 15:38:00,81.0,78.5,30.08,SE,135,3.0,5.0,92,0.00,,---,0.00,VWS V14.01,2013-09-16 19:38:00,
2013-09-16 15:43:00,81.0,78.5,30.07,SE,135,4.0,6.0,92,0.00,,---,0.00,VWS V14.01,2013-09-16 19:43:00,
2013-09-16 15:48:00,82.0,79.4,30.07,SE,135,5.0,5.0,92,0.00,,---,0.00,VWS V14.01,2013-09-16 19:48:00,
2013-09-16 15:53:00,82.0,79.1,30.06,SE,135,6.0,7.0,91,0.00,,---,0.00,VWS V14.01,2013-09-16 19:53:00,
2013-09-16 15:58:00,82.0,79.8,30.06,ESE,112,2.0,2.0,93,0.00,,---,0.00,VWS V14.01,2013-09-16 19:58:00,
2013-09-16 16:03:00,82.0,78.8,30.06,ESE,112,2.0,5.0,90,0.00,,---,0.00,VWS V14.01,2013-09-16 20:03:00,
2013-09-16 16:08:00,82.0,78.8,30.06,SE,135,1.0,5.0,90,0.00,,---,0.00,VWS V14.01,2013-09-16 20:08:00,
2013-09-16 16:13:00,82.0,79.4,30.06,SW,225,0.0,2.0,92,0.00,,---,0.00,VWS V14.01,2013-09-16 20:13:00,
2013-09-16 16:18:00,82.0,82.0,30.06,SE,135,0.0,5.0,100,0.00,,---,0.00,VWS V14.01,2013-09-16 20:18:00,
2013-09-16 16:23:00,82.0,80.1,30.06,SE,135,0.0,3.0,94,0.00,,---,0.00,VWS V14.01,2013-09-16 20:23:00,
2013-09-16 16:28:00,82.0,79.4,30.06,South,180,0.0,3.0,92,0.00,,---,0.00,VWS V14.01,2013-09-16 20:28:00,
2013-09-16 16:33:00,82.0,80.4,30.05,SE,135,0.0,1.0,95,0.00,,---,0.00,VWS V14.01,2013-09-16 20:33:00,
2013-09-16 16:38:00,82.0,79.8,30.05,South,180,0.0,0.0,93,0.00,,---,0.00,VWS V14.01,2013-09-16 20:38:00,
2013-09-16 16:43:00,82.0,79.8,30.05,SE,135,2.0,4.0,93,0.00,,---,0.00,VWS V14.01,2013-09-16 20:43:00,
2013-09-16 16:48:00,81.0,79.8,30.05,SSW,202,0.0,1.0,96,0.00,,---,0.00,VWS V14.01,2013-09-16 20:48:00,
2013-09-16 16:53:00,81.0,78.8,30.06,SW,225,0.0,0.0,93,0.00,,---,0.00,VWS V14.01,2013-09-16 20:53:00,
2013-09-16 16:58:00,81.0,78.8,30.06,SE,135,1.0,2.0,93,0.00,,---,0.00,VWS V14.01,2013-09-16 20:58:00,
2013-09-16 17:03:00,81.0,78.5,30.06,South,180,0.0,3.0,92,0.00,,---,0.00,VWS V14.01,2013-09-16 21:03:00,
2013-09-16 17:08:00,80.0,77.8,30.06,SE,135,0.0,0.0,93,0.00,,---,0.00,VWS V14.01,2013-09-16 21:08:00,
2013-09-16 17:13:00,80.0,78.4,30.06,SE,135,0.0,0.0,95,0.00,,---,0.00,VWS V14.01,2013-09-16 21:13:00,
2013-09-16 17:18:00,80.0,79.1,30.06,SW,225,0.0,0.0,97,0.00,,---,0.00,VWS V14.01,2013-09-16 21:18:00,
2013-09-16 17:23:00,80.0,79.1,30.06,SE,135,0.0,1.0,97,0.00,,---,0.00,VWS V14.01,2013-09-16 21:23:00,
2013-09-16 17:28:00,80.0,79.7,30.06,SE,135,0.0,0.0,99,0.00,,---,0.00,VWS V14.01,2013-09-16 21:28:00,
2013-09-16 17:33:00,80.0,79.4,30.06,SE,135,0.0,1.0,98,0.00,,---,0.00,VWS V14.01,2013-09-16 21:33:00,
2013-09-16 17:38:00,80.0,80.0,30.06,SE,135,0.0,0.0,100,0.00,,---,0.00,VWS V14.01,2013-09-16 21:38:00,
2013-09-16 17:43:00,80.0,79.4,30.06,SE,135,0.0,2.0,98,0.00,,---,0.00,VWS V14.01,2013-09-16 21:43:00,
2013-09-16 17:48:00,79.0,78.4,30.06,SE,135,0.0,0.0,98,0.00,,---,0.00,VWS V14.01,2013-09-16 21:48:00,
2013-09-16 17:53:00,79.0,78.4,30.06,SE,135,0.0,2.0,98,0.00,,---,0.00,VWS V14.01,2013-09-16 21:53:00,
2013-09-16 17:58:00,79.0,79.0,30.06,SE,135,2.0,2.0,100,0.00,,---,0.00,VWS V14.01,2013-09-16 21:58:00,
2013-09-16 18:03:00,79.0,78.4,30.06,SE,135,2.0,5.0,98,0.00,,---,0.00,VWS V14.01,2013-09-16 22:03:00,
2013-09-16 18:08:00,79.0,78.7,30.06,SE,135,2.0,5.0,99,0.00,,---,0.00,VWS V14.01,2013-09-16 22:08:00,
2013-09-16 18:13:00,79.0,78.1,30.06,ESE,112,3.0,9.0,97,0.00,,---,0.00,VWS V14.01,2013-09-16 22:13:00,
2013-09-16 18:18:00,79.0,78.1,30.06,ESE,112,2.0,7.0,97,0.00,,---,0.00,VWS V14.01,2013-09-16 22:18:00,
2013-09-16 18:23:00,79.0,78.4,30.06,ESE,112,5.0,7.0,98,0.00,,---,0.00,VWS V14.01,2013-09-16 22:23:00,
2013-09-16 18:28:00,78.0,77.7,30.06,ESE,112,2.0,2.0,99,0.00,,---,0.00,VWS V14.01,2013-09-16 22:28:00,
2013-09-16 18:33:00,78.0,78.0,30.07,ESE,112,1.0,2.0,100,0.00,,---,0.00,VWS V14.01,2013-09-16 22:33:00,
2013-09-16 18:38:00,78.0,78.0,30.07,ESE,112,0.0,3.0,100,0.00,,---,0.00,VWS V14.01,2013-09-16 22:38:00,
2013-09-16 18:43:00,78.0,78.0,30.06,ESE,112,0.0,1.0,100,0.00,,---,0.00,VWS V14.01,2013-09-16 22:43:00,
2013-09-16 18:48:00,78.0,78.0,30.06,ESE,112,0.0,1.0,100,0.00,,---,0.00,VWS V14.01,2013-09-16 22:48:00,
2013-09-16 18:53:00,78.0,78.0,30.06,ESE,112,0.0,3.0,100,0.00,,---,0.00,VWS V14.01,2013-09-16 22:53:00,
2013-09-16 18:58:00,78.0,78.0,30.06,East,90,1.0,4.0,100,0.00,,---,0.00,VWS V14.01,2013-09-16 22:58:00,
2013-09-16 19:03:00,78.0,78.0,30.06,East,90,0.0,1.0,100,0.00,,---,0.00,VWS V14.01,2013-09-16 23:03:00,
2013-09-16 19:08:00,77.0,77.0,30.06,East,90,2.0,3.0,100,0.00,,---,0.00,VWS V14.01,2013-09-16 23:08:00,
2013-09-16 19:13:00,77.0,77.0,30.06,ESE,112,0.0,0.0,100,0.00,,---,0.00,VWS V14.01,2013-09-16 23:13:00,
2013-09-16 19:18:00,77.0,77.0,30.06,ESE,112,0.0,0.0,100,0.00,,---,0.00,VWS V14.01,2013-09-16 23:18:00,
2013-09-16 19:23:00,77.0,77.0,30.06,ESE,112,0.0,1.0,100,0.00,,---,0.00,VWS V14.01,2013-09-16 23:23:00,
2013-09-16 19:28:00,77.0,77.0,30.06,ESE,112,0.0,0.0,100,0.00,,---,0.00,VWS V14.01,2013-09-16 23:28:00,
2013-09-16 19:33:00,77.0,77.0,30.06,ESE,112,0.0,0.0,100,0.00,,---,0.00,VWS V14.01,2013-09-16 23:33:00,
2013-09-16 19:38:00,76.0,76.0,30.06,ESE,112,0.0,0.0,100,0.00,,---,0.00,VWS V14.01,2013-09-16 23:38:00,
2013-09-16 19:43:00,76.0,76.0,30.06,ESE,112,0.0,0.0,100,0.00,,---,0.00,VWS V14.01,2013-09-16 23:43:00,
2013-09-16 19:48:00,76.0,76.0,30.06,ESE,112,0.0,0.0,100,0.00,,---,0.00,VWS V14.01,2013-09-16 23:48:00,
2013-09-16 19:53:00,76.0,76.0,30.06,ESE,112,0.0,0.0,100,0.00,,---,0.00,VWS V14.01,2013-09-16 23:53:00,
2013-09-16 19:58:00,76.0,76.0,30.06,ESE,112,0.0,0.0,100,0.00,,---,0.00,VWS V14.01,2013-09-16 23:58:00,
2013-09-16 20:03:00,76.0,76.0,30.06,ESE,112,0.0,0.0,100,0.00,,---,0.00,VWS V14.01,2013-09-17 00:03:00,
2013-09-16 20:08:00,75.0,75.0,30.06,ESE,112,0.0,0.0,100,0.00,,---,0.00,VWS V14.01,2013-09-17 00:08:00,
2013-09-16 20:13:00,75.0,75.0,30.07,ESE,112,0.0,0.0,100,0.00,,---,0.00,VWS V14.01,2013-09-17 00:13:00,
2013-09-16 20:18:00,75.0,75.0,30.07,ESE,112,0.0,0.0,100,0.00,,---,0.00,VWS V14.01,2013-09-17 00:18:00,
2013-09-16 20:23:00,75.0,75.0,30.08,ESE,112,0.0,0.0,100,0.00,,---,0.00,VWS V14.01,2013-09-17 00:23:00,
2013-09-16 20:28:00,75.0,75.0,30.08,ESE,112,0.0,0.0,100,0.00,,---,0.00,VWS V14.01,2013-09-17 00:28:00,
2013-09-16 20:33:00,75.0,75.0,30.08,ESE,112,0.0,0.0,100,0.00,,---,0.00,VWS V14.01,2013-09-17 00:33:00,
2013-09-16 20:38:00,75.0,75.0,30.08,ESE,112,0.0,0.0,100,0.00,,---,0.00,VWS V14.01,2013-09-17 00:38:00,
2013-09-16 20:43:00,75.0,75.0,30.08,ESE,112,0.0,0.0,100,0.00,,---,0.00,VWS V14.01,2013-09-17 00:43:00,
2013-09-16 20:49:00,74.0,74.0,30.08,ESE,112,0.0,0.0,100,0.00,,---,0.00,VWS V14.01,2013-09-17 00:49:00,
2013-09-16 20:54:00,74.0,74.0,30.09,ESE,112,0.0,0.0,100,0.00,,---,0.00,VWS V14.01,2013-09-17 00:54:00,
2013-09-16 20:59:00,74.0,74.0,30.09,ESE,112,0.0,0.0,100,0.00,,---,0.00,VWS V14.01,2013-09-17 00:59:00,
2013-09-16 21:04:00,74.0,74.0,30.09,ESE,112,0.0,0.0,100,0.00,,---,0.00,VWS V14.01,2013-09-17 01:04:00,
2013-09-16 21:09:00,74.0,74.0,30.09,ESE,112,0.0,0.0,100,0.00,,---,0.00,VWS V14.01,2013-09-17 01:09:00,
2013-09-16 21:14:00,74.0,74.0,30.10,ESE,112,0.0,0.0,100,0.00,,---,0.00,VWS V14.01,2013-09-17 01:14:00,
2013-09-16 21:19:00,73.0,73.0,30.10,ESE,112,0.0,0.0,100,0.00,,---,0.00,VWS V14.01,2013-09-17 01:19:00,
2013-09-16 21:24:00,73.0,73.0,30.10,ESE,112,0.0,0.0,100,0.00,,---,0.00,VWS V14.01,2013-09-17 01:24:00,
2013-09-16 21:29:00,73.0,73.0,30.10,ESE,112,0.0,0.0,100,0.00,,---,0.00,VWS V14.01,2013-09-17 01:29:00,
2013-09-16 21:34:00,73.0,73.0,30.11,ESE,112,0.0,3.0,100,0.00,,---,0.00,VWS V14.01,2013-09-17 01:34:00,
2013-09-16 21:39:00,73.0,72.7,30.11,ESE,112,0.0,4.0,99,0.00,,---,0.00,VWS V14.01,2013-09-17 01:39:00,
2013-09-16 21:44:00,74.0,73.7,30.10,ESE,112,0.0,0.0,99,0.00,,---,0.00,VWS V14.01,2013-09-17 01:44:00,
2013-09-16 21:49:00,74.0,73.7,30.10,ESE,112,0.0,0.0,99,0.00,,---,0.00,VWS V14.01,2013-09-17 01:49:00,
2013-09-16 21:54:00,74.0,73.7,30.11,ESE,112,0.0,1.0,99,0.00,,---,0.00,VWS V14.01,2013-09-17 01:54:00,
2013-09-16 21:59:00,74.0,73.7,30.11,ESE,112,0.0,1.0,99,0.00,,---,0.00,VWS V14.01,2013-09-17 01:59:00,
2013-09-16 22:04:00,74.0,73.7,30.10,ESE,112,1.0,1.0,99,0.00,,---,0.00,VWS V14.01,2013-09-17 02:04:00,
2013-09-16 22:09:00,75.0,75.0,30.10,ESE,112,1.0,2.0,100,0.00,,---,0.00,VWS V14.01,2013-09-17 02:09:00,
2013-09-16 22:15:00,75.0,75.0,30.10,ESE,112,0.0,6.0,100,0.00,,---,0.00,VWS V14.01,2013-09-17 02:15:00,
2013-09-16 22:20:00,76.0,76.0,30.10,ESE,112,0.0,0.0,100,0.00,,---,0.00,VWS V14.01,2013-09-17 02:20:00,
2013-09-16 22:25:00,76.0,76.0,30.10,ESE,112,0.0,7.0,100,0.00,,---,0.00,VWS V14.01,2013-09-17 02:25:00,
2013-09-16 22:30:00,76.0,76.0,30.10,ESE,112,0.0,2.0,100,0.00,,---,0.00,VWS V14.01,2013-09-17 02:30:00,
2013-09-16 22:35:00,76.0,76.0,30.09,ESE,112,1.0,1.0,100,0.00,,---,0.00,VWS V14.01,2013-09-17 02:35:00,
2013-09-16 22:40:00,76.0,76.0,30.09,ESE,112,3.0,6.0,100,0.00,,---,0.00,VWS V14.01,2013-09-17 02:40:00,
2013-09-16 22:45:00,77.0,77.0,30.09,ESE,112,0.0,2.0,100,0.00,,---,0.00,VWS V14.01,2013-09-17 02:45:00,
2013-09-16 22:50:00,77.0,77.0,30.09,ESE,112,0.0,0.0,100,0.00,,---,0.00,VWS V14.01,2013-09-17 02:50:00,
2013-09-16 22:55:00,77.0,77.0,30.08,ESE,112,0.0,0.0,100,0.00,,---,0.00,VWS V14.01,2013-09-17 02:55:00,
2013-09-16 23:00:00,77.0,77.0,30.08,ESE,112,0.0,3.0,100,0.00,,---,0.00,VWS V14.01,2013-09-17 03:00:00,
2013-09-16 23:05:00,77.0,77.0,30.08,ESE,112,0.0,1.0,100,0.00,,---,0.00,VWS V14.01,2013-09-17 03:05:00,
2013-09-16 23:10:00,77.0,77.0,30.08,ESE,112,0.0,2.0,100,0.00,,---,0.00,VWS V14.01,2013-09-17 03:10:00,
2013-09-16 23:15:00,76.0,76.0,30.08,ESE,112,0.0,0.0,100,0.00,,---,0.00,VWS V14.01,2013-09-17 03:15:00,
2013-09-16 23:20:00,76.0,76.0,30.08,ESE,112,0.0,4.0,100,0.00,,---,0.00,VWS V14.01,2013-09-17 03:20:00,
2013-09-16 23:25:00,76.0,76.0,30.09,ESE,112,0.0,1.0,100,0.00,,---,0.00,VWS V14.01,2013-09-17 03:25:00,
2013-09-16 23:30:00,76.0,76.0,30.09,ESE,112,0.0,0.0,100,0.00,,---,0.00,VWS V14.01,2013-09-17 03:30:00,
2013-09-16 23:35:00,76.0,76.0,30.08,ESE,112,0.0,2.0,100,0.00,,---,0.00,VWS V14.01,2013-09-17 03:35:00,
2013-09-16 23:40:00,76.0,76.0,30.08,ESE,112,0.0,2.0,100,0.00,,---,0.00,VWS V14.01,2013-09-17 03:40:00,
2013-09-16 23:45:00,76.0,76.0,30.08,ESE,112,0.0,0.0,100,0.00,,---,0.00,VWS V14.01,2013-09-17 03:45:00,
2013-09-16 23:50:00,76.0,76.0,30.08,ESE,112,1.0,1.0,100,0.00,,---,0.00,VWS V14.01,2013-09-17 03:50:00,
2013-09-16 23:55:00,76.0,76.0,30.08,ESE,112,0.0,0.0,100,0.00,,---,0.00,VWS V14.01,2013-09-17 03:55:00,